sensor_id;sensor_type;location;lat;lon;timestamp;pressure;altitude;pressure_sealevel;temperature;humidity
41062;BME280;26812;42.662;23.352;2024-01-16T00:00:31;93410.88;;;3.47;63.38
41062;BME280;26812;42.662;23.352;2024-01-16T00:02:57;93427.09;;;3.67;63.71
41062;BME280;26812;42.662;23.352;2024-01-16T00:05:22;93427.97;;;3.54;63.91
41062;BME280;26812;42.662;23.352;2024-01-16T00:07:48;93441.66;;;3.70;63.24
41062;BME280;26812;42.662;23.352;2024-01-16T00:10:14;93453.81;;;3.54;64.15
41062;BME280;26812;42.662;23.352;2024-01-16T00:12:41;93436.09;;;3.40;64.47
41062;BME280;26812;42.662;23.352;2024-01-16T00:15:07;93442.41;;;3.62;64.10
41062;BME280;26812;42.662;23.352;2024-01-16T00:17:32;93448.31;;;3.50;63.80
41062;BME280;26812;42.662;23.352;2024-01-16T00:19:58;93446.94;;;3.61;64.38
41062;BME280;26812;42.662;23.352;2024-01-16T00:22:26;93409.03;;;3.56;64.07
41062;BME280;26812;42.662;23.352;2024-01-16T00:24:52;93438.09;;;3.92;62.11
41062;BME280;26812;42.662;23.352;2024-01-16T00:27:17;93447.03;;;3.87;62.46
41062;BME280;26812;42.662;23.352;2024-01-16T00:29:43;93433.31;;;3.63;63.72
41062;BME280;26812;42.662;23.352;2024-01-16T00:32:08;93452.66;;;3.77;63.21
41062;BME280;26812;42.662;23.352;2024-01-16T00:34:34;93448.97;;;3.56;64.47
41062;BME280;26812;42.662;23.352;2024-01-16T00:36:59;93458.63;;;3.83;63.87
41062;BME280;26812;42.662;23.352;2024-01-16T00:39:24;93454.13;;;4.09;61.75
41062;BME280;26812;42.662;23.352;2024-01-16T00:41:50;93470.13;;;4.09;61.83
41062;BME280;26812;42.662;23.352;2024-01-16T00:44:15;93458.38;;;3.62;63.35
41062;BME280;26812;42.662;23.352;2024-01-16T00:46:41;93425.47;;;3.58;62.85
41062;BME280;26812;42.662;23.352;2024-01-16T00:49:06;93458.63;;;3.91;62.87
41062;BME280;26812;42.662;23.352;2024-01-16T00:51:33;93409.56;;;3.75;62.41
41062;BME280;26812;42.662;23.352;2024-01-16T00:53:58;93459.00;;;4.24;61.96
41062;BME280;26812;42.662;23.352;2024-01-16T00:56:24;93464.63;;;3.57;63.51
41062;BME280;26812;42.662;23.352;2024-01-16T00:58:52;93476.63;;;3.77;63.91
41062;BME280;26812;42.662;23.352;2024-01-16T01:01:19;93465.25;;;4.02;63.40
41062;BME280;26812;42.662;23.352;2024-01-16T01:03:45;93482.91;;;3.90;63.95
41062;BME280;26812;42.662;23.352;2024-01-16T01:06:10;93448.50;;;3.54;64.31
41062;BME280;26812;42.662;23.352;2024-01-16T01:08:39;93481.66;;;3.87;63.54
41062;BME280;26812;42.662;23.352;2024-01-16T01:11:04;93517.41;;;3.95;64.20
41062;BME280;26812;42.662;23.352;2024-01-16T01:13:30;93487.00;;;3.96;64.68
41062;BME280;26812;42.662;23.352;2024-01-16T01:15:55;93486.75;;;4.23;63.71
41062;BME280;26812;42.662;23.352;2024-01-16T01:18:21;93490.41;;;4.36;63.16
41062;BME280;26812;42.662;23.352;2024-01-16T01:20:47;93486.47;;;4.42;62.78
41062;BME280;26812;42.662;23.352;2024-01-16T01:23:13;93508.44;;;4.30;63.71
41062;BME280;26812;42.662;23.352;2024-01-16T01:25:38;93498.09;;;4.29;63.77
41062;BME280;26812;42.662;23.352;2024-01-16T01:28:04;93488.41;;;3.93;64.43
41062;BME280;26812;42.662;23.352;2024-01-16T01:30:31;93486.59;;;4.11;63.30
41062;BME280;26812;42.662;23.352;2024-01-16T01:32:56;93481.88;;;4.08;62.88
41062;BME280;26812;42.662;23.352;2024-01-16T01:35:22;93471.75;;;3.70;64.34
41062;BME280;26812;42.662;23.352;2024-01-16T01:37:47;93475.81;;;3.68;64.22
41062;BME280;26812;42.662;23.352;2024-01-16T01:40:13;93486.19;;;3.87;64.10
41062;BME280;26812;42.662;23.352;2024-01-16T01:42:41;93477.34;;;4.09;64.11
41062;BME280;26812;42.662;23.352;2024-01-16T01:45:09;93487.53;;;4.07;63.16
41062;BME280;26812;42.662;23.352;2024-01-16T01:47:34;93470.84;;;3.92;64.03
41062;BME280;26812;42.662;23.352;2024-01-16T01:50:01;93473.09;;;4.16;64.02
41062;BME280;26812;42.662;23.352;2024-01-16T01:52:29;93474.41;;;4.45;62.45
41062;BME280;26812;42.662;23.352;2024-01-16T01:54:55;93481.78;;;4.30;62.93
41062;BME280;26812;42.662;23.352;2024-01-16T01:57:21;93488.53;;;4.71;62.55
41062;BME280;26812;42.662;23.352;2024-01-16T01:59:46;93487.72;;;4.53;62.54
41062;BME280;26812;42.662;23.352;2024-01-16T02:02:12;93473.00;;;4.39;63.54
41062;BME280;26812;42.662;23.352;2024-01-16T02:04:38;93488.63;;;4.05;64.59
41062;BME280;26812;42.662;23.352;2024-01-16T02:07:05;93475.16;;;4.19;64.86
41062;BME280;26812;42.662;23.352;2024-01-16T02:09:31;93486.31;;;4.56;64.42
41062;BME280;26812;42.662;23.352;2024-01-16T02:11:57;93489.00;;;4.82;63.87
41062;BME280;26812;42.662;23.352;2024-01-16T02:14:22;93499.97;;;4.89;63.09
41062;BME280;26812;42.662;23.352;2024-01-16T02:16:48;93491.34;;;4.57;64.35
41062;BME280;26812;42.662;23.352;2024-01-16T02:19:14;93491.50;;;4.87;63.52
41062;BME280;26812;42.662;23.352;2024-01-16T02:21:51;93502.97;;;4.79;63.66
41062;BME280;26812;42.662;23.352;2024-01-16T02:24:19;93501.69;;;4.50;64.68
41062;BME280;26812;42.662;23.352;2024-01-16T02:26:44;93516.63;;;4.77;64.48
41062;BME280;26812;42.662;23.352;2024-01-16T02:29:10;93499.53;;;4.61;65.00
41062;BME280;26812;42.662;23.352;2024-01-16T02:31:35;93504.06;;;4.69;64.99
41062;BME280;26812;42.662;23.352;2024-01-16T02:34:01;93510.00;;;4.40;66.12
41062;BME280;26812;42.662;23.352;2024-01-16T02:36:28;93504.38;;;4.50;66.30
41062;BME280;26812;42.662;23.352;2024-01-16T02:38:56;93515.53;;;4.78;65.75
41062;BME280;26812;42.662;23.352;2024-01-16T02:41:22;93518.19;;;5.04;64.02
41062;BME280;26812;42.662;23.352;2024-01-16T02:43:48;93521.97;;;4.60;65.63
41062;BME280;26812;42.662;23.352;2024-01-16T02:46:16;93529.81;;;4.91;65.29
41062;BME280;26812;42.662;23.352;2024-01-16T02:48:41;93534.19;;;4.78;65.31
41062;BME280;26812;42.662;23.352;2024-01-16T02:51:08;93543.94;;;5.00;65.46
41062;BME280;26812;42.662;23.352;2024-01-16T02:53:33;93544.56;;;5.14;64.57
41062;BME280;26812;42.662;23.352;2024-01-16T02:55:59;93559.47;;;5.33;63.97
41062;BME280;26812;42.662;23.352;2024-01-16T02:58:28;93580.84;;;5.33;64.10
41062;BME280;26812;42.662;23.352;2024-01-16T03:00:54;93590.72;;;5.06;65.19
41062;BME280;26812;42.662;23.352;2024-01-16T03:03:19;93584.94;;;4.95;64.94
41062;BME280;26812;42.662;23.352;2024-01-16T03:05:46;93605.00;;;4.84;65.46
41062;BME280;26812;42.662;23.352;2024-01-16T03:08:12;93555.03;;;4.42;66.29
41062;BME280;26812;42.662;23.352;2024-01-16T03:10:39;93614.22;;;4.61;66.88
41062;BME280;26812;42.662;23.352;2024-01-16T03:13:05;93600.06;;;4.43;67.38
41062;BME280;26812;42.662;23.352;2024-01-16T03:15:30;93629.47;;;4.78;66.62
41062;BME280;26812;42.662;23.352;2024-01-16T03:17:57;93639.66;;;4.67;67.08
41062;BME280;26812;42.662;23.352;2024-01-16T03:20:22;93654.25;;;4.70;66.84
41062;BME280;26812;42.662;23.352;2024-01-16T03:22:49;93658.50;;;4.79;66.83
41062;BME280;26812;42.662;23.352;2024-01-16T03:25:18;93659.28;;;4.71;67.75
41062;BME280;26812;42.662;23.352;2024-01-16T03:27:44;93673.31;;;4.94;67.49
41062;BME280;26812;42.662;23.352;2024-01-16T03:30:09;93653.78;;;4.67;68.71
41062;BME280;26812;42.662;23.352;2024-01-16T03:32:36;93682.53;;;4.79;71.23
41062;BME280;26812;42.662;23.352;2024-01-16T03:35:02;93656.00;;;4.83;72.75
41062;BME280;26812;42.662;23.352;2024-01-16T03:37:28;93693.75;;;5.07;73.02
41062;BME280;26812;42.662;23.352;2024-01-16T03:39:53;93686.78;;;4.89;75.40
41062;BME280;26812;42.662;23.352;2024-01-16T03:42:20;93705.97;;;4.91;77.05
41062;BME280;26812;42.662;23.352;2024-01-16T03:44:46;93713.94;;;4.82;78.00
41062;BME280;26812;42.662;23.352;2024-01-16T03:47:11;93722.63;;;5.05;77.50
41062;BME280;26812;42.662;23.352;2024-01-16T03:49:36;93713.53;;;5.15;76.87
41062;BME280;26812;42.662;23.352;2024-01-16T03:52:02;93708.50;;;4.96;77.28
41062;BME280;26812;42.662;23.352;2024-01-16T03:54:27;93688.31;;;4.73;77.23
41062;BME280;26812;42.662;23.352;2024-01-16T03:56:53;93732.53;;;5.05;76.52
41062;BME280;26812;42.662;23.352;2024-01-16T03:59:18;93745.38;;;4.94;75.98
41062;BME280;26812;42.662;23.352;2024-01-16T04:01:44;93758.31;;;4.70;76.62
41062;BME280;26812;42.662;23.352;2024-01-16T04:04:11;93760.88;;;4.52;77.27
41062;BME280;26812;42.662;23.352;2024-01-16T04:06:36;93773.84;;;4.67;76.71
41062;BME280;26812;42.662;23.352;2024-01-16T04:09:02;93767.19;;;4.56;76.70
41062;BME280;26812;42.662;23.352;2024-01-16T04:11:29;93752.16;;;4.29;76.93
41062;BME280;26812;42.662;23.352;2024-01-16T04:13:54;93789.25;;;4.48;76.78
41062;BME280;26812;42.662;23.352;2024-01-16T04:16:20;93799.00;;;4.53;76.26
41062;BME280;26812;42.662;23.352;2024-01-16T04:18:45;93801.50;;;4.49;75.54
41062;BME280;26812;42.662;23.352;2024-01-16T04:21:11;93768.38;;;3.97;76.63
41062;BME280;26812;42.662;23.352;2024-01-16T04:23:36;93816.44;;;4.28;75.47
41062;BME280;26812;42.662;23.352;2024-01-16T04:26:02;93819.47;;;4.13;76.28
41062;BME280;26812;42.662;23.352;2024-01-16T04:28:28;93811.81;;;3.97;75.84
41062;BME280;26812;42.662;23.352;2024-01-16T04:30:53;93807.25;;;3.76;75.94
41062;BME280;26812;42.662;23.352;2024-01-16T04:33:19;93826.34;;;3.91;75.84
41062;BME280;26812;42.662;23.352;2024-01-16T04:35:44;93812.09;;;3.73;75.66
41062;BME280;26812;42.662;23.352;2024-01-16T04:38:10;93820.63;;;4.20;74.86
41062;BME280;26812;42.662;23.352;2024-01-16T04:40:35;93828.56;;;4.12;74.16
41062;BME280;26812;42.662;23.352;2024-01-16T04:43:01;93831.38;;;3.93;74.44
41062;BME280;26812;42.662;23.352;2024-01-16T04:45:28;93833.44;;;3.96;74.88
41062;BME280;26812;42.662;23.352;2024-01-16T04:47:53;93842.09;;;3.79;74.77
41062;BME280;26812;42.662;23.352;2024-01-16T04:50:18;93859.47;;;3.77;75.05
41062;BME280;26812;42.662;23.352;2024-01-16T04:52:44;93870.91;;;3.77;74.99
41062;BME280;26812;42.662;23.352;2024-01-16T04:55:10;93866.78;;;3.57;75.03
41062;BME280;26812;42.662;23.352;2024-01-16T04:57:36;93868.34;;;3.58;75.17
41062;BME280;26812;42.662;23.352;2024-01-16T05:00:01;93888.88;;;3.44;75.56
41062;BME280;26812;42.662;23.352;2024-01-16T05:02:32;93892.03;;;3.46;75.22
41062;BME280;26812;42.662;23.352;2024-01-16T05:04:57;93903.88;;;3.54;74.75
41062;BME280;26812;42.662;23.352;2024-01-16T05:07:24;93902.50;;;3.42;74.63
41062;BME280;26812;42.662;23.352;2024-01-16T05:09:49;93914.72;;;3.16;74.85
41062;BME280;26812;42.662;23.352;2024-01-16T05:12:15;93922.75;;;2.97;75.16
41062;BME280;26812;42.662;23.352;2024-01-16T05:14:40;93933.44;;;3.11;74.77
41062;BME280;26812;42.662;23.352;2024-01-16T05:17:05;93938.66;;;3.16;74.53
41062;BME280;26812;42.662;23.352;2024-01-16T05:19:31;93938.38;;;3.31;74.13
41062;BME280;26812;42.662;23.352;2024-01-16T05:21:57;93938.19;;;3.28;73.61
41062;BME280;26812;42.662;23.352;2024-01-16T05:24:22;93949.91;;;3.27;74.33
41062;BME280;26812;42.662;23.352;2024-01-16T05:26:48;93966.75;;;3.22;73.76
41062;BME280;26812;42.662;23.352;2024-01-16T05:29:13;93969.63;;;3.12;74.03
41062;BME280;26812;42.662;23.352;2024-01-16T05:31:40;93988.47;;;3.29;73.69
41062;BME280;26812;42.662;23.352;2024-01-16T05:34:06;93982.03;;;3.17;72.95
41062;BME280;26812;42.662;23.352;2024-01-16T05:36:32;93989.88;;;3.40;72.80
41062;BME280;26812;42.662;23.352;2024-01-16T05:38:57;93990.38;;;3.42;72.54
41062;BME280;26812;42.662;23.352;2024-01-16T05:41:22;93993.28;;;3.27;72.08
41062;BME280;26812;42.662;23.352;2024-01-16T05:43:48;94008.09;;;3.33;72.39
41062;BME280;26812;42.662;23.352;2024-01-16T05:46:13;94004.03;;;3.36;72.20
41062;BME280;26812;42.662;23.352;2024-01-16T05:48:39;94019.56;;;3.48;71.90
41062;BME280;26812;42.662;23.352;2024-01-16T05:51:04;94022.16;;;3.20;71.91
41062;BME280;26812;42.662;23.352;2024-01-16T05:53:30;94032.91;;;3.15;71.47
41062;BME280;26812;42.662;23.352;2024-01-16T05:55:55;94038.72;;;3.17;71.17
41062;BME280;26812;42.662;23.352;2024-01-16T05:58:22;94055.50;;;3.18;70.62
41062;BME280;26812;42.662;23.352;2024-01-16T06:00:47;94071.03;;;3.10;70.20
41062;BME280;26812;42.662;23.352;2024-01-16T06:03:13;94080.66;;;3.25;69.98
41062;BME280;26812;42.662;23.352;2024-01-16T06:05:38;94081.84;;;3.33;69.64
41062;BME280;26812;42.662;23.352;2024-01-16T06:08:03;94080.94;;;3.24;69.12
41062;BME280;26812;42.662;23.352;2024-01-16T06:10:29;94079.47;;;3.31;68.94
41062;BME280;26812;42.662;23.352;2024-01-16T06:12:54;94101.41;;;3.42;69.03
41062;BME280;26812;42.662;23.352;2024-01-16T06:15:20;94102.22;;;3.42;69.21
41062;BME280;26812;42.662;23.352;2024-01-16T06:17:45;94114.28;;;3.54;69.08
41062;BME280;26812;42.662;23.352;2024-01-16T06:20:11;94091.41;;;3.34;69.42
41062;BME280;26812;42.662;23.352;2024-01-16T06:22:36;94126.59;;;3.50;69.19
41062;BME280;26812;42.662;23.352;2024-01-16T06:25:01;94132.13;;;3.53;69.17
41062;BME280;26812;42.662;23.352;2024-01-16T06:27:27;94140.19;;;3.48;69.43
41062;BME280;26812;42.662;23.352;2024-01-16T06:29:53;94138.22;;;3.72;68.44
41062;BME280;26812;42.662;23.352;2024-01-16T06:32:18;94143.44;;;3.78;68.18
41062;BME280;26812;42.662;23.352;2024-01-16T06:34:44;94140.66;;;3.69;68.46
41062;BME280;26812;42.662;23.352;2024-01-16T06:37:09;94152.34;;;3.87;67.79
41062;BME280;26812;42.662;23.352;2024-01-16T06:39:36;94166.56;;;3.96;66.98
41062;BME280;26812;42.662;23.352;2024-01-16T06:42:02;94165.06;;;3.90;66.41
41062;BME280;26812;42.662;23.352;2024-01-16T06:44:30;94174.66;;;3.58;65.97
41062;BME280;26812;42.662;23.352;2024-01-16T06:46:55;94174.44;;;3.36;67.44
41062;BME280;26812;42.662;23.352;2024-01-16T06:49:21;94181.66;;;3.35;67.15
41062;BME280;26812;42.662;23.352;2024-01-16T06:51:46;94190.31;;;3.08;66.63
41062;BME280;26812;42.662;23.352;2024-01-16T06:54:12;94188.41;;;2.90;66.32
41062;BME280;26812;42.662;23.352;2024-01-16T06:56:37;94200.00;;;3.18;66.49
41062;BME280;26812;42.662;23.352;2024-01-16T06:59:03;94206.13;;;3.19;66.08
41062;BME280;26812;42.662;23.352;2024-01-16T07:01:29;94207.41;;;3.02;66.01
41062;BME280;26812;42.662;23.352;2024-01-16T07:03:54;94219.53;;;2.90;67.05
41062;BME280;26812;42.662;23.352;2024-01-16T07:06:20;94241.56;;;2.71;66.59
41062;BME280;26812;42.662;23.352;2024-01-16T07:08:45;94226.63;;;2.75;66.44
41062;BME280;26812;42.662;23.352;2024-01-16T07:11:11;94229.91;;;2.91;67.00
41062;BME280;26812;42.662;23.352;2024-01-16T07:13:41;94231.63;;;3.01;66.20
41062;BME280;26812;42.662;23.352;2024-01-16T07:16:10;94250.88;;;3.17;66.53
41062;BME280;26812;42.662;23.352;2024-01-16T07:18:37;94262.50;;;3.45;65.67
41062;BME280;26812;42.662;23.352;2024-01-16T07:21:03;94273.09;;;3.07;65.90
41062;BME280;26812;42.662;23.352;2024-01-16T07:23:29;94289.34;;;2.82;66.96
41062;BME280;26812;42.662;23.352;2024-01-16T07:25:55;94282.88;;;2.64;67.36
41062;BME280;26812;42.662;23.352;2024-01-16T07:28:20;94299.94;;;2.87;66.54
41062;BME280;26812;42.662;23.352;2024-01-16T07:30:47;94311.03;;;2.94;66.88
41062;BME280;26812;42.662;23.352;2024-01-16T07:33:13;94309.88;;;3.00;66.21
41062;BME280;26812;42.662;23.352;2024-01-16T07:35:38;94316.28;;;3.23;66.32
41062;BME280;26812;42.662;23.352;2024-01-16T07:38:06;94312.38;;;3.39;65.15
41062;BME280;26812;42.662;23.352;2024-01-16T07:40:31;94313.34;;;3.00;65.37
41062;BME280;26812;42.662;23.352;2024-01-16T07:42:57;94328.19;;;3.06;65.58
41062;BME280;26812;42.662;23.352;2024-01-16T07:45:22;94334.03;;;3.08;65.55
41062;BME280;26812;42.662;23.352;2024-01-16T07:47:48;94328.88;;;3.17;65.49
41062;BME280;26812;42.662;23.352;2024-01-16T07:50:14;94323.81;;;3.39;65.69
41062;BME280;26812;42.662;23.352;2024-01-16T07:52:39;94319.38;;;3.30;65.29
41062;BME280;26812;42.662;23.352;2024-01-16T07:55:05;94340.00;;;3.43;64.70
41062;BME280;26812;42.662;23.352;2024-01-16T07:57:30;94350.09;;;3.22;65.54
41062;BME280;26812;42.662;23.352;2024-01-16T07:59:56;94357.91;;;3.14;65.34
41062;BME280;26812;42.662;23.352;2024-01-16T08:02:22;94367.56;;;3.09;65.87
41062;BME280;26812;42.662;23.352;2024-01-16T08:04:47;94374.69;;;3.38;65.40
41062;BME280;26812;42.662;23.352;2024-01-16T08:07:13;94375.94;;;3.22;65.49
41062;BME280;26812;42.662;23.352;2024-01-16T08:09:38;94383.63;;;3.23;65.57
41062;BME280;26812;42.662;23.352;2024-01-16T08:12:04;94383.53;;;3.09;65.72
41062;BME280;26812;42.662;23.352;2024-01-16T08:14:31;94383.75;;;3.13;66.02
41062;BME280;26812;42.662;23.352;2024-01-16T08:16:56;94387.13;;;3.19;65.32
41062;BME280;26812;42.662;23.352;2024-01-16T08:19:22;94392.63;;;3.27;65.09
41062;BME280;26812;42.662;23.352;2024-01-16T08:21:47;94379.38;;;3.22;65.46
41062;BME280;26812;42.662;23.352;2024-01-16T08:24:12;94411.25;;;3.27;64.47
41062;BME280;26812;42.662;23.352;2024-01-16T08:26:38;94413.94;;;3.27;65.54
41062;BME280;26812;42.662;23.352;2024-01-16T08:29:03;94426.47;;;2.98;65.58
41062;BME280;26812;42.662;23.352;2024-01-16T08:31:30;94417.03;;;3.34;64.72
41062;BME280;26812;42.662;23.352;2024-01-16T08:33:55;94425.09;;;3.77;63.90
41062;BME280;26812;42.662;23.352;2024-01-16T08:36:22;94410.38;;;3.37;63.53
41062;BME280;26812;42.662;23.352;2024-01-16T08:38:48;94432.88;;;3.50;64.08
41062;BME280;26812;42.662;23.352;2024-01-16T08:41:14;94442.88;;;3.58;63.32
41062;BME280;26812;42.662;23.352;2024-01-16T08:43:40;94432.78;;;3.07;63.54
41062;BME280;26812;42.662;23.352;2024-01-16T08:46:05;94447.97;;;3.30;64.86
41062;BME280;26812;42.662;23.352;2024-01-16T08:48:32;94451.03;;;2.90;64.41
41062;BME280;26812;42.662;23.352;2024-01-16T08:50:57;94453.81;;;2.74;64.88
41062;BME280;26812;42.662;23.352;2024-01-16T08:53:24;94435.75;;;2.71;64.65
41062;BME280;26812;42.662;23.352;2024-01-16T08:55:49;94468.81;;;2.94;63.95
41062;BME280;26812;42.662;23.352;2024-01-16T08:58:15;94460.88;;;2.55;65.18
41062;BME280;26812;42.662;23.352;2024-01-16T09:00:40;94475.69;;;2.66;64.69
41062;BME280;26812;42.662;23.352;2024-01-16T09:03:05;94471.63;;;2.74;65.13
41062;BME280;26812;42.662;23.352;2024-01-16T09:05:33;94480.69;;;3.07;63.73
41062;BME280;26812;42.662;23.352;2024-01-16T09:08:01;94423.28;;;2.96;63.17
41062;BME280;26812;42.662;23.352;2024-01-16T09:10:28;94469.03;;;3.27;62.59
41062;BME280;26812;42.662;23.352;2024-01-16T09:12:54;94475.63;;;3.34;62.06
41062;BME280;26812;42.662;23.352;2024-01-16T09:15:20;94485.31;;;3.25;62.55
41062;BME280;26812;42.662;23.352;2024-01-16T09:17:45;94474.03;;;3.04;63.44
41062;BME280;26812;42.662;23.352;2024-01-16T09:20:11;94484.38;;;3.40;62.18
41062;BME280;26812;42.662;23.352;2024-01-16T09:22:37;94489.25;;;3.57;62.00
41062;BME280;26812;42.662;23.352;2024-01-16T09:25:03;94462.31;;;3.82;61.60
41062;BME280;26812;42.662;23.352;2024-01-16T09:27:28;94485.44;;;4.11;60.14
41062;BME280;26812;42.662;23.352;2024-01-16T09:29:54;94500.44;;;4.25;60.49
41062;BME280;26812;42.662;23.352;2024-01-16T09:32:19;94497.00;;;4.62;59.15
41062;BME280;26812;42.662;23.352;2024-01-16T09:34:44;94508.75;;;4.61;58.35
41062;BME280;26812;42.662;23.352;2024-01-16T09:37:10;94508.41;;;3.83;59.28
41062;BME280;26812;42.662;23.352;2024-01-16T09:39:38;94504.50;;;3.75;60.18
41062;BME280;26812;42.662;23.352;2024-01-16T09:42:03;94489.69;;;3.64;60.57
41062;BME280;26812;42.662;23.352;2024-01-16T09:44:29;94491.63;;;4.06;59.92
41062;BME280;26812;42.662;23.352;2024-01-16T09:46:55;94443.44;;;3.79;59.06
41062;BME280;26812;42.662;23.352;2024-01-16T09:49:23;94500.78;;;3.76;59.64
41062;BME280;26812;42.662;23.352;2024-01-16T09:51:49;94439.13;;;3.35;59.55
41062;BME280;26812;42.662;23.352;2024-01-16T09:54:14;94508.78;;;4.19;59.60
41062;BME280;26812;42.662;23.352;2024-01-16T09:56:43;94488.28;;;3.95;58.83
41062;BME280;26812;42.662;23.352;2024-01-16T09:59:12;94507.97;;;3.99;58.24
41062;BME280;26812;42.662;23.352;2024-01-16T10:01:41;94469.88;;;3.99;57.95
41062;BME280;26812;42.662;23.352;2024-01-16T10:04:06;94494.91;;;4.59;57.02
41062;BME280;26812;42.662;23.352;2024-01-16T10:06:33;94485.41;;;5.51;54.53
41062;BME280;26812;42.662;23.352;2024-01-16T10:08:59;94500.50;;;5.88;51.75
41062;BME280;26812;42.662;23.352;2024-01-16T10:11:24;94498.44;;;5.99;51.41
41062;BME280;26812;42.662;23.352;2024-01-16T10:13:50;94499.47;;;5.56;52.39
41062;BME280;26812;42.662;23.352;2024-01-16T10:16:15;94504.22;;;5.13;53.48
41062;BME280;26812;42.662;23.352;2024-01-16T10:18:41;94487.16;;;5.42;53.83
41062;BME280;26812;42.662;23.352;2024-01-16T10:21:21;94511.88;;;6.35;50.79
41062;BME280;26812;42.662;23.352;2024-01-16T10:23:48;94506.22;;;6.86;49.83
41062;BME280;26812;42.662;23.352;2024-01-16T10:26:14;94522.41;;;6.45;48.75
41062;BME280;26812;42.662;23.352;2024-01-16T10:28:40;94512.88;;;6.39;48.67
41062;BME280;26812;42.662;23.352;2024-01-16T10:31:07;94504.91;;;6.61;49.35
41062;BME280;26812;42.662;23.352;2024-01-16T10:33:33;94503.75;;;6.40;49.93
41062;BME280;26812;42.662;23.352;2024-01-16T10:36:15;94513.81;;;7.06;47.57
41062;BME280;26812;42.662;23.352;2024-01-16T10:38:46;94487.59;;;6.81;47.50
41062;BME280;26812;42.662;23.352;2024-01-16T10:41:14;94508.19;;;6.94;47.73
41062;BME280;26812;42.662;23.352;2024-01-16T10:43:40;94488.13;;;9.50;42.60
41062;BME280;26812;42.662;23.352;2024-01-16T10:46:10;94519.91;;;11.01;39.09
41062;BME280;26812;42.662;23.352;2024-01-16T10:48:38;94516.63;;;11.70;36.24
41062;BME280;26812;42.662;23.352;2024-01-16T10:51:06;94521.44;;;13.07;34.44
41062;BME280;26812;42.662;23.352;2024-01-16T10:53:32;94517.34;;;13.65;32.66
41062;BME280;26812;42.662;23.352;2024-01-16T10:56:00;94510.75;;;13.79;32.01
41062;BME280;26812;42.662;23.352;2024-01-16T10:58:30;94506.69;;;13.73;32.67
41062;BME280;26812;42.662;23.352;2024-01-16T11:01:02;94492.53;;;14.54;30.33
41062;BME280;26812;42.662;23.352;2024-01-16T11:06:08;94517.19;;;10.59;36.63
41062;BME280;26812;42.662;23.352;2024-01-16T11:08:38;94511.56;;;10.43;37.38
41062;BME280;26812;42.662;23.352;2024-01-16T11:11:05;94511.84;;;9.57;38.46
41062;BME280;26812;42.662;23.352;2024-01-16T11:13:34;94511.38;;;9.38;39.68
41062;BME280;26812;42.662;23.352;2024-01-16T11:16:03;94516.78;;;9.29;40.00
41062;BME280;26812;42.662;23.352;2024-01-16T11:18:33;94529.72;;;8.84;41.95
41062;BME280;26812;42.662;23.352;2024-01-16T11:21:01;94527.84;;;9.01;41.78
41062;BME280;26812;42.662;23.352;2024-01-16T11:23:27;94503.50;;;9.07;41.45
41062;BME280;26812;42.662;23.352;2024-01-16T11:25:53;94508.91;;;8.89;41.14
41062;BME280;26812;42.662;23.352;2024-01-16T11:28:19;94508.81;;;7.98;43.21
41062;BME280;26812;42.662;23.352;2024-01-16T11:30:45;94526.75;;;7.89;44.50
41062;BME280;26812;42.662;23.352;2024-01-16T11:35:56;94520.72;;;6.08;48.58
41062;BME280;26812;42.662;23.352;2024-01-16T11:38:22;94511.97;;;5.75;48.89
41062;BME280;26812;42.662;23.352;2024-01-16T11:40:48;94520.63;;;6.27;48.89
41062;BME280;26812;42.662;23.352;2024-01-16T11:45:58;94501.56;;;6.42;47.97
41062;BME280;26812;42.662;23.352;2024-01-16T11:48:25;94534.97;;;6.94;47.95
41062;BME280;26812;42.662;23.352;2024-01-16T11:50:52;94527.66;;;6.72;47.18
41062;BME280;26812;42.662;23.352;2024-01-16T12:01:45;94542.84;;;6.77;48.09
41062;BME280;26812;42.662;23.352;2024-01-16T12:04:13;94540.56;;;6.84;48.02
41062;BME280;26812;42.662;23.352;2024-01-16T12:06:40;94531.00;;;6.92;47.85
41062;BME280;26812;42.662;23.352;2024-01-16T12:09:15;94550.53;;;6.56;49.03
41062;BME280;26812;42.662;23.352;2024-01-16T12:11:43;94542.91;;;6.22;49.65
41062;BME280;26812;42.662;23.352;2024-01-16T12:14:11;94559.44;;;6.51;50.21
41062;BME280;26812;42.662;23.352;2024-01-16T12:16:37;94568.13;;;6.71;48.14
41062;BME280;26812;42.662;23.352;2024-01-16T12:19:10;94570.75;;;6.35;47.12
41062;BME280;26812;42.662;23.352;2024-01-16T12:21:42;94575.28;;;6.07;49.32
41062;BME280;26812;42.662;23.352;2024-01-16T12:24:10;94567.44;;;5.50;49.79
41062;BME280;26812;42.662;23.352;2024-01-16T12:26:36;94558.06;;;5.20;51.13
41062;BME280;26812;42.662;23.352;2024-01-16T12:29:02;94565.81;;;4.65;53.33
41062;BME280;26812;42.662;23.352;2024-01-16T12:31:28;94545.19;;;4.28;54.00
41062;BME280;26812;42.662;23.352;2024-01-16T12:34:04;94575.47;;;4.80;55.29
41062;BME280;26812;42.662;23.352;2024-01-16T12:36:30;94569.34;;;4.98;54.34
41062;BME280;26812;42.662;23.352;2024-01-16T12:38:56;94570.13;;;4.99;54.20
41062;BME280;26812;42.662;23.352;2024-01-16T12:41:23;94567.59;;;5.26;54.09
41062;BME280;26812;42.662;23.352;2024-01-16T12:43:50;94552.25;;;5.32;53.62
41062;BME280;26812;42.662;23.352;2024-01-16T12:46:16;94589.78;;;5.73;52.79
41062;BME280;26812;42.662;23.352;2024-01-16T12:48:41;94567.59;;;5.73;52.29
41062;BME280;26812;42.662;23.352;2024-01-16T12:51:07;94590.25;;;6.08;50.68
41062;BME280;26812;42.662;23.352;2024-01-16T12:53:33;94595.53;;;6.27;50.25
41062;BME280;26812;42.662;23.352;2024-01-16T12:56:05;94565.72;;;5.73;50.06
41062;BME280;26812;42.662;23.352;2024-01-16T12:58:35;94582.53;;;5.74;51.11
41062;BME280;26812;42.662;23.352;2024-01-16T13:01:26;94580.28;;;6.27;50.23
41062;BME280;26812;42.662;23.352;2024-01-16T13:03:53;94564.00;;;5.96;49.74
41062;BME280;26812;42.662;23.352;2024-01-16T13:06:22;94590.47;;;6.52;48.84
41062;BME280;26812;42.662;23.352;2024-01-16T13:08:48;94592.94;;;6.63;48.24
41062;BME280;26812;42.662;23.352;2024-01-16T13:11:14;94592.34;;;6.79;48.78